Time;durP1;ratioP1;P1;durP2;ratioP2;P2;SDS_P1;SDS_P2;PMS_P1;PMS_P2;Temp;Humidity;BMP_temperature;BMP_pressure;BME280_temperature;BME280_humidity;BME280_pressure;Samples;Min_cycle;Max_cycle;Signal;HPM_P1;HPM_P2
2022/03/15 00:00:55;;;;;;;;;;;;;;;10.05;100.00;100183.31;5063779;28;20388;-61
2022/03/15 00:03:33;;;;;;;;;;;;;;;10.01;100.00;100182.50;5064134;28;19916;-62
2022/03/15 00:06:02;;;;;;;;;;;;;;;10.17;100.00;100177.16;5062816;28;19917;-62
2022/03/15 00:08:33;;;;;;;;;;;;;;;10.08;100.00;100179.84;5063899;28;22660;-60
2022/03/15 00:20:46;;;;;;;;;;;;;;;9.71;100.00;100169.94;5056389;28;19962;-63
2022/03/15 00:51:28;;;;;;;;;;;;;;;9.89;100.00;100162.03;5057931;28;20323;-63
2022/03/15 00:54:12;;;;;;;;;;;;;;;9.52;100.00;100157.25;5061722;28;20653;-62
2022/03/15 00:56:53;;;;;;;;;;;;;;;9.39;100.00;100151.38;5068415;28;19916;-62
2022/03/15 01:00:03;;;;;;;;;;;;;;;9.45;100.00;100149.63;5062031;28;20140;-61
2022/03/15 01:11:49;;;;;;;;;;;;;;;10.50;100.00;100157.09;5053215;28;20050;-62
2022/03/15 01:14:25;;;;;;;;;;;;;;;10.17;100.00;100146.28;5037000;28;19955;-62
2022/03/15 01:50:48;;;;;;;;;;;;;;;9.33;100.00;100130.03;5025113;28;19924;-61
2022/03/15 02:20:57;;;;;;;;;;;;;;;9.10;100.00;100119.91;5059223;28;19935;-61
2022/03/15 02:35:59;;;;;;;;;;;;;;;9.44;100.00;100092.19;5056719;28;19920;-62
2022/03/15 02:50:48;;;;;;;;;;;;;;;9.75;100.00;100085.00;5061026;28;19917;-62
2022/03/15 03:20:58;;;;;;;;;;;;;;;9.53;100.00;100066.38;5060662;28;19936;-61
2022/03/15 03:51:13;;;;;;;;;;;;;;;9.29;100.00;100046.94;5061223;28;19952;-59
2022/03/15 04:30:48;;;;;;;;;;;;;;;9.63;100.00;100039.72;5059828;28;19912;-62
2022/03/15 04:51:46;;;;;;;;;;;;;;;9.43;100.00;100051.94;5062635;28;19921;-62
2022/03/15 04:54:12;;;;;;;;;;;;;;;9.00;100.00;100053.19;5062426;28;19913;-63
2022/03/15 04:56:38;;;;;;;;;;;;;;;9.54;100.00;100047.53;5060680;28;19920;-63
2022/03/15 04:59:03;;;;;;;;;;;;;;;9.45;100.00;100049.34;5062069;28;19931;-62
2022/03/15 05:01:28;;;;;;;;;;;;;;;9.81;100.00;100048.94;5060327;28;19999;-62
2022/03/15 05:03:56;;;;;;;;;;;;;;;9.74;100.00;100046.44;5061265;28;19955;-64
2022/03/15 05:09:30;;;;;;;;;;;;;;;9.73;100.00;100039.59;5059240;28;20021;-60
2022/03/15 05:11:58;;;;;;;;;;;;;;;9.39;100.00;100037.41;5060361;28;19921;-62
2022/03/15 05:14:24;;;;;;;;;;;;;;;9.77;100.00;100038.69;5062072;28;19939;-62
2022/03/15 05:32:09;;;;;;;;;;;;;;;9.98;100.00;100030.69;5059731;28;19943;-62
2022/03/15 05:34:34;;;;;;;;;;;;;;;9.72;100.00;100035.34;5061534;28;19916;-61
2022/03/15 05:37:02;;;;;;;;;;;;;;;9.55;100.00;100033.78;5061753;28;19917;-62
2022/03/15 05:39:30;;;;;;;;;;;;;;;9.62;100.00;100030.31;5059246;28;20392;-60
2022/03/15 05:42:13;;;;;;;;;;;;;;;9.50;100.00;100027.84;5059241;28;19921;-59
2022/03/15 05:44:39;;;;;;;;;;;;;;;9.62;100.00;100030.31;5060539;28;19965;-60
2022/03/15 05:47:04;;;;;;;;;;;;;;;9.25;100.00;100023.84;5061419;28;19993;-61
2022/03/15 05:49:30;;;;;;;;;;;;;;;9.67;100.00;100029.38;5063758;28;19920;-61
2022/03/15 06:01:39;;;;;;;;;;;;;;;9.68;100.00;100020.81;5063087;28;20000;-62
2022/03/15 06:04:07;;;;;;;;;;;;;;;10.04;100.00;100022.06;5065784;28;19924;-62
2022/03/15 06:06:33;;;;;;;;;;;;;;;9.52;100.00;100022.69;5065984;28;19916;-62
2022/03/15 06:08:59;;;;;;;;;;;;;;;9.57;100.00;100010.63;5065943;28;19999;-62
2022/03/15 06:11:31;;;;;;;;;;;;;;;9.74;100.00;100007.84;5065835;28;19960;-61
2022/03/15 06:13:56;;;;;;;;;;;;;;;9.75;100.00;100009.56;5069121;28;19920;-62
2022/03/15 06:16:22;;;;;;;;;;;;;;;9.32;100.00;100010.06;5069778;28;19918;-62
2022/03/15 06:18:56;;;;;;;;;;;;;;;9.35;100.00;100015.16;5070110;28;20040;-62
2022/03/15 06:21:22;;;;;;;;;;;;;;;9.42;100.00;100016.81;5069102;28;19952;-62
2022/03/15 06:23:47;;;;;;;;;;;;;;;8.88;100.00;100019.06;5070045;28;20402;-61
2022/03/15 06:26:15;;;;;;;;;;;;;;;8.70;100.00;100020.06;5069193;28;19912;-62
2022/03/15 06:28:55;;;;;;;;;;;;;;;9.02;100.00;100017.22;5069204;28;20491;-61
2022/03/15 06:31:21;;;;;;;;;;;;;;;9.00;100.00;100013.78;5069829;28;19924;-62
2022/03/15 06:33:47;;;;;;;;;;;;;;;8.65;100.00;100021.81;5069409;28;19969;-59
2022/03/15 06:36:13;;;;;;;;;;;;;;;8.66;100.00;100014.09;5069210;28;19912;-62
2022/03/15 06:38:39;;;;;;;;;;;;;;;8.83;100.00;100010.53;5041877;28;19924;-62
2022/03/15 06:41:05;;;;;;;;;;;;;;;9.35;100.00;100007.44;5070061;28;19923;-61
2022/03/15 06:43:30;;;;;;;;;;;;;;;9.51;100.00;100005.56;5069454;28;19913;-60
2022/03/15 06:45:55;;;;;;;;;;;;;;;9.26;100.00;100004.97;5069574;28;19982;-62
2022/03/15 06:48:23;;;;;;;;;;;;;;;9.25;100.00;99998.97;5069054;28;19915;-61
2022/03/15 06:50:48;;;;;;;;;;;;;;;9.43;100.00;100005.66;5083619;28;19921;-62
2022/03/15 06:53:14;;;;;;;;;;;;;;;9.46;100.00;99997.88;5068459;28;19912;-62
2022/03/15 06:55:49;;;;;;;;;;;;;;;9.27;100.00;100004.13;5068411;28;19923;-62
2022/03/15 06:58:15;;;;;;;;;;;;;;;9.82;100.00;99998.31;5069083;28;19920;-61
2022/03/15 07:00:40;;;;;;;;;;;;;;;10.23;100.00;99986.59;5068669;28;19916;-60
2022/03/15 07:03:05;;;;;;;;;;;;;;;9.25;100.00;99993.00;5067786;28;20005;-62
2022/03/15 07:05:31;;;;;;;;;;;;;;;9.88;100.00;99997.41;5069008;28;19916;-62
2022/03/15 07:07:56;;;;;;;;;;;;;;;9.20;100.00;99999.03;5040516;28;20415;-62
2022/03/15 07:10:29;;;;;;;;;;;;;;;9.61;100.00;99997.72;5068885;28;20536;-61
2022/03/15 07:12:55;;;;;;;;;;;;;;;9.64;100.00;99992.53;5068137;28;19926;-60
2022/03/15 07:15:22;;;;;;;;;;;;;;;9.44;100.00;99989.34;5068274;28;19999;-62
2022/03/15 07:17:54;;;;;;;;;;;;;;;9.52;100.00;99997.00;5068322;28;19970;-62
2022/03/15 07:20:19;;;;;;;;;;;;;;;9.13;100.00;99997.41;5067830;28;19929;-62
2022/03/15 07:22:47;;;;;;;;;;;;;;;9.66;100.00;99994.25;5068444;28;20566;-62
2022/03/15 07:25:13;;;;;;;;;;;;;;;9.13;100.00;99986.28;5083644;28;19954;-62
2022/03/15 07:27:40;;;;;;;;;;;;;;;9.81;100.00;99978.63;5069062;28;20389;-62
2022/03/15 07:30:09;;;;;;;;;;;;;;;10.05;100.00;99974.84;5068642;28;19912;-62
2022/03/15 07:51:09;;;;;;;;;;;;;;;10.20;100.00;99971.22;5063615;28;19912;-62
2022/03/15 08:02:51;;;;;;;;;;;;;;;10.62;100.00;99958.56;5067138;28;20285;-62
2022/03/15 08:05:16;;;;;;;;;;;;;;;10.80;100.00;99958.25;5067564;28;19956;-61
2022/03/15 08:07:41;;;;;;;;;;;;;;;10.43;100.00;99948.56;5067367;28;19960;-62
2022/03/15 08:10:07;;;;;;;;;;;;;;;10.79;100.00;99951.41;5067732;28;19916;-62
2022/03/15 08:12:33;;;;;;;;;;;;;;;11.33;100.00;99950.38;5065913;28;19920;-62
2022/03/15 08:14:58;;;;;;;;;;;;;;;11.09;100.00;99938.81;5067423;28;20367;-61
2022/03/15 08:17:24;;;;;;;;;;;;;;;10.63;100.00;99943.09;5067373;28;19965;-61
2022/03/15 08:22:53;;;;;;;;;;;;;;;11.02;100.00;99930.38;5067235;28;20007;-61
2022/03/15 08:28:40;;;;;;;;;;;;;;;11.19;100.00;99927.44;5064420;28;19923;-62
2022/03/15 08:31:05;;;;;;;;;;;;;;;11.19;100.00;99929.19;5067092;28;20285;-62
2022/03/15 08:33:31;;;;;;;;;;;;;;;11.25;100.00;99923.91;5049350;28;19922;-61
2022/03/15 08:35:56;;;;;;;;;;;;;;;11.44;100.00;99922.63;5066661;28;20314;-62
2022/03/15 08:38:21;;;;;;;;;;;;;;;11.71;100.00;99915.19;5067430;28;19923;-61
2022/03/15 08:40:47;;;;;;;;;;;;;;;11.75;100.00;99909.09;5082467;28;19913;-61
2022/03/15 08:43:12;;;;;;;;;;;;;;;11.88;100.00;99909.69;5067335;28;20007;-61
2022/03/15 08:45:38;;;;;;;;;;;;;;;12.02;100.00;99899.91;5067014;28;19916;-61
2022/03/15 08:48:04;;;;;;;;;;;;;;;12.06;100.00;99904.09;5064877;28;19943;-61
2022/03/15 08:50:29;;;;;;;;;;;;;;;11.99;100.00;99918.03;5066579;28;19966;-61
2022/03/15 08:52:55;;;;;;;;;;;;;;;11.98;100.00;99916.34;5066806;28;19928;-61
2022/03/15 08:55:21;;;;;;;;;;;;;;;11.97;100.00;99913.78;5067201;28;19912;-61
2022/03/15 08:57:47;;;;;;;;;;;;;;;12.10;100.00;99916.06;5066655;28;20016;-61
2022/03/15 09:00:12;;;;;;;;;;;;;;;11.87;100.00;99907.97;5066288;28;20368;-62
2022/03/15 09:02:38;;;;;;;;;;;;;;;12.47;100.00;99909.16;5066050;28;19993;-61
2022/03/15 09:05:03;;;;;;;;;;;;;;;12.38;100.00;99905.06;5066955;28;19943;-61
2022/03/15 09:07:30;;;;;;;;;;;;;;;11.87;100.00;99895.06;5066419;28;19917;-61
2022/03/15 09:09:55;;;;;;;;;;;;;;;12.10;100.00;99900.56;5066877;28;19912;-61
2022/03/15 09:12:21;;;;;;;;;;;;;;;12.18;100.00;99892.66;5066654;28;20519;-62
2022/03/15 09:14:46;;;;;;;;;;;;;;;12.32;100.00;99897.47;5066651;28;19936;-62
2022/03/15 09:17:12;;;;;;;;;;;;;;;12.72;100.00;99896.44;5066086;28;20468;-62
2022/03/15 09:19:40;;;;;;;;;;;;;;;12.83;100.00;99888.41;5066703;28;19921;-62
2022/03/15 09:22:06;;;;;;;;;;;;;;;12.77;100.00;99874.78;5066430;28;20366;-61
2022/03/15 09:24:33;;;;;;;;;;;;;;;12.40;100.00;99886.94;5036878;28;19917;-61
2022/03/15 09:26:58;;;;;;;;;;;;;;;12.74;100.00;99886.91;5038263;28;19924;-63
2022/03/15 09:29:24;;;;;;;;;;;;;;;12.05;100.00;99886.91;5037352;28;20435;-61
2022/03/15 09:31:49;;;;;;;;;;;;;;;12.29;100.00;99889.78;5066267;28;20399;-62
2022/03/15 09:34:15;;;;;;;;;;;;;;;12.27;100.00;99879.50;5065939;28;20470;-62
2022/03/15 09:36:41;;;;;;;;;;;;;;;12.32;100.00;99872.50;5047643;28;19999;-62
2022/03/15 09:39:07;;;;;;;;;;;;;;;12.48;100.00;99872.09;5066278;28;20031;-61
2022/03/15 09:41:35;;;;;;;;;;;;;;;13.05;100.00;99866.25;5065878;28;19980;-62
2022/03/15 09:44:01;;;;;;;;;;;;;;;12.84;100.00;99852.19;5037920;28;19958;-62
2022/03/15 09:46:26;;;;;;;;;;;;;;;12.77;100.00;99861.84;5036270;28;19960;-62
2022/03/15 09:48:52;;;;;;;;;;;;;;;13.30;100.00;99855.22;5081646;28;19927;-61
2022/03/15 09:51:18;;;;;;;;;;;;;;;13.29;100.00;99854.38;5066141;28;19912;-62
2022/03/15 09:53:43;;;;;;;;;;;;;;;13.12;100.00;99848.81;5066139;28;19912;-62
2022/03/15 09:56:09;;;;;;;;;;;;;;;13.36;100.00;99844.69;5066235;28;19917;-62
2022/03/15 09:58:36;;;;;;;;;;;;;;;13.33;100.00;99845.63;5065508;28;20225;-61
2022/03/15 10:01:02;;;;;;;;;;;;;;;13.26;100.00;99835.47;5081403;28;19913;-61
2022/03/15 10:03:27;;;;;;;;;;;;;;;13.25;100.00;99832.06;5065859;28;19919;-60
2022/03/15 10:05:53;;;;;;;;;;;;;;;12.51;100.00;99834.09;5066082;28;19916;-61
2022/03/15 10:08:18;;;;;;;;;;;;;;;12.94;100.00;99827.75;5036489;28;19912;-60
2022/03/15 10:10:45;;;;;;;;;;;;;;;13.07;100.00;99822.22;5064951;28;19917;-60
2022/03/15 10:13:10;;;;;;;;;;;;;;;13.31;100.00;99813.78;5081040;28;19924;-61
2022/03/15 10:15:36;;;;;;;;;;;;;;;13.34;100.00;99816.28;5066253;28;19973;-61
2022/03/15 10:18:05;;;;;;;;;;;;;;;13.02;100.00;99814.59;5039166;28;19920;-61
2022/03/15 10:20:41;;;;;;;;;;;;;;;13.52;100.00;99808.84;5066074;28;19912;-60
2022/03/15 10:23:09;;;;;;;;;;;;;;;13.48;100.00;99796.88;5065720;28;19931;-61
2022/03/15 10:25:35;;;;;;;;;;;;;;;13.59;100.00;99789.63;5065709;28;19916;-61
2022/03/15 10:28:01;;;;;;;;;;;;;;;14.50;100.00;99790.03;5081170;28;19916;-59
2022/03/15 10:30:27;;;;;;;;;;;;;;;13.68;100.00;99788.50;5066020;28;20393;-61
2022/03/15 10:32:52;;;;;;;;;;;;;;;13.72;100.00;99788.34;5065817;28;19993;-61
2022/03/15 10:35:45;;;;;;;;;;;;;;;13.58;100.00;99782.78;5034890;28;19919;-61
2022/03/15 10:38:11;;;;;;;;;;;;;;;14.17;100.00;99772.19;5064919;28;19931;-61
2022/03/15 10:40:43;;;;;;;;;;;;;;;14.30;100.00;99774.34;5065868;28;19917;-61
2022/03/15 10:43:18;;;;;;;;;;;;;;;14.15;100.00;99776.56;5065857;28;19917;-61
2022/03/15 10:45:57;;;;;;;;;;;;;;;;;;;;;
2022/03/15 10:48:40;;;;;;;;;;;;;;;;;;;;;
2022/03/15 10:51:24;;;;;;;;;;;;;;;14.42;100.00;99758.38;5056737;28;20385;-61
2022/03/15 10:53:50;;;;;;;;;;;;;;;14.22;100.00;99752.13;5065883;28;20425;-61
2022/03/15 10:56:17;;;;;;;;;;;;;;;15.20;100.00;99749.47;5065564;28;19921;-61
2022/03/15 10:58:50;;;;;;;;;;;;;;;14.35;100.00;99754.31;5038165;28;19917;-61
2022/03/15 11:01:19;;;;;;;;;;;;;;;15.37;100.00;99744.47;5069370;28;19966;-61
2022/03/15 11:03:57;;;;;;;;;;;;;;;15.64;100.00;99744.22;5069288;28;20035;-61
2022/03/15 11:06:30;;;;;;;;;;;;;;;14.40;100.00;99739.44;5069144;28;19919;-61
2022/03/15 11:08:59;;;;;;;;;;;;;;;14.63;100.00;99739.47;5069086;28;19923;-61
2022/03/15 11:11:44;;;;;;;;;;;;;;;15.03;100.00;99735.41;5057985;28;20299;-61
2022/03/15 11:14:10;;;;;;;;;;;;;;;14.95;100.00;99734.84;5038530;28;20406;-61
2022/03/15 11:22:41;;;;;;;;;;;;;;;14.99;100.00;99718.25;5045206;28;20004;-61
2022/03/15 11:40:54;;;;;;;;;;;;;;;15.47;100.00;99696.44;5033236;28;19938;-61
2022/03/15 11:43:33;;;;;;;;;;;;;;;14.88;100.00;99691.88;5036858;28;19917;-60
2022/03/15 12:01:40;;;;;;;;;;;;;;;16.19;100.00;99653.56;5042699;28;19935;-61
2022/03/15 12:10:51;;;;;;;;;;;;;;;15.83;100.00;99640.47;5043885;28;20570;-61
2022/03/15 13:11:53;;;;;;;;;;;;;;;16.26;100.00;99558.84;5017174;28;19921;-61
2022/03/15 13:20:52;;;;;;;;;;;;;;;15.05;100.00;99558.91;5023633;28;19916;-61
2022/03/15 13:41:52;;;;;;;;;;;;;;;14.79;100.00;99542.69;5060361;28;19939;-59
2022/03/15 13:44:25;;;;;;;;;;;;;;;15.28;100.00;99537.22;5062682;28;19927;-60
2022/03/15 13:47:27;;;;;;;;;;;;;;;;;;;;;
2022/03/15 13:49:57;;;;;;;;;;;;;;;14.34;100.00;99545.31;5057119;28;20381;-61
2022/03/15 13:52:23;;;;;;;;;;;;;;;14.66;100.00;99538.91;5062449;28;19912;-61
2022/03/15 13:55:10;;;;;;;;;;;;;;;14.82;100.00;99541.72;5062166;28;20397;-59
2022/03/15 13:57:49;;;;;;;;;;;;;;;14.66;100.00;99531.13;5062327;28;20270;-59
2022/03/15 14:00:20;;;;;;;;;;;;;;;13.73;100.00;99533.78;5044510;28;19916;-61
2022/03/15 14:02:51;;;;;;;;;;;;;;;14.41;100.00;99528.63;5062361;28;20432;-61
2022/03/15 14:05:19;;;;;;;;;;;;;;;14.63;100.00;99529.50;5061850;28;19920;-61
2022/03/15 14:07:46;;;;;;;;;;;;;;;14.19;100.00;99532.06;5059088;28;19928;-61
2022/03/15 14:10:18;;;;;;;;;;;;;;;14.86;100.00;99519.94;5059499;28;19943;-61
2022/03/15 14:12:43;;;;;;;;;;;;;;;14.42;100.00;99527.75;5060035;28;20502;-61
2022/03/15 14:15:13;;;;;;;;;;;;;;;14.64;100.00;99523.44;5059874;28;19920;-61
2022/03/15 14:17:43;;;;;;;;;;;;;;;14.78;100.00;99529.78;5059296;28;19920;-61
2022/03/15 14:20:14;;;;;;;;;;;;;;;14.48;100.00;99524.88;5059852;28;19916;-59
2022/03/15 14:22:52;;;;;;;;;;;;;;;14.41;100.00;99524.31;5056375;28;19921;-61
2022/03/15 14:25:21;;;;;;;;;;;;;;;14.43;100.00;99524.22;5060037;28;20003;-61
2022/03/15 14:27:47;;;;;;;;;;;;;;;15.29;100.00;99512.94;5060567;28;20443;-60
2022/03/15 14:30:16;;;;;;;;;;;;;;;14.66;100.00;99518.16;5058391;28;20357;-61
2022/03/15 14:33:01;;;;;;;;;;;;;;;14.51;100.00;99521.34;5059799;28;19920;-60
2022/03/15 14:35:44;;;;;;;;;;;;;;;14.23;100.00;99527.59;5064048;28;20366;-60
2022/03/15 14:38:11;;;;;;;;;;;;;;;14.83;100.00;99520.09;5064409;28;19927;-61
2022/03/15 14:40:44;;;;;;;;;;;;;;;14.37;100.00;99524.50;5063914;28;19920;-60
2022/03/15 14:43:14;;;;;;;;;;;;;;;14.88;100.00;99520.72;5064527;28;20290;-60
2022/03/15 14:51:50;;;;;;;;;;;;;;;14.93;100.00;99523.97;5061276;28;20293;-61
2022/03/15 14:54:15;;;;;;;;;;;;;;;14.68;100.00;99525.88;5063298;28;19966;-61
2022/03/15 14:56:41;;;;;;;;;;;;;;;14.69;100.00;99527.56;5062563;28;19920;-61
2022/03/15 14:59:14;;;;;;;;;;;;;;;14.47;100.00;99520.63;5062421;28;19978;-61
2022/03/15 15:01:48;;;;;;;;;;;;;;;14.38;100.00;99531.34;5036156;28;19920;-61
2022/03/15 15:04:13;;;;;;;;;;;;;;;14.70;100.00;99534.44;5062343;28;19927;-61
2022/03/15 15:06:40;;;;;;;;;;;;;;;14.36;100.00;99538.34;5062464;28;19920;-61
2022/03/15 15:09:09;;;;;;;;;;;;;;;13.90;100.00;99537.50;5062497;28;19920;-61
2022/03/15 15:11:40;;;;;;;;;;;;;;;14.16;100.00;99533.91;5061796;28;19924;-61
2022/03/15 15:14:07;;;;;;;;;;;;;;;13.71;100.00;99538.19;5062462;28;19979;-60
2022/03/15 15:16:38;;;;;;;;;;;;;;;14.16;100.00;99539.97;5062018;28;19998;-61
2022/03/15 15:19:03;;;;;;;;;;;;;;;14.58;100.00;99539.22;5063362;28;20354;-60
2022/03/15 15:21:30;;;;;;;;;;;;;;;14.37;100.00;99540.03;5059315;28;19920;-61
2022/03/15 15:23:55;;;;;;;;;;;;;;;14.79;100.00;99542.69;5063258;28;20309;-60
2022/03/15 15:26:22;;;;;;;;;;;;;;;15.05;100.00;99541.63;5062858;28;19927;-61
2022/03/15 15:28:53;;;;;;;;;;;;;;;15.23;100.00;99542.59;5064841;28;19928;-61
2022/03/15 15:31:18;;;;;;;;;;;;;;;14.89;100.00;99553.53;5060873;28;19985;-60
2022/03/15 15:33:45;;;;;;;;;;;;;;;14.95;100.00;99558.47;5064035;28;19920;-60
2022/03/15 15:36:10;;;;;;;;;;;;;;;14.92;100.00;99556.00;5064214;28;19918;-61
2022/03/15 15:41:48;;;;;;;;;;;;;;;14.42;100.00;99564.84;5061796;28;20399;-61
2022/03/15 15:44:27;;;;;;;;;;;;;;;13.02;100.00;99573.28;5032950;28;19920;-61
2022/03/15 15:49:38;;;;;;;;;;;;;;;13.94;100.00;99563.22;5053469;28;19935;-60
2022/03/15 15:52:04;;;;;;;;;;;;;;;14.62;100.00;99560.69;5064405;28;19917;-61
2022/03/15 15:54:29;;;;;;;;;;;;;;;14.91;100.00;99559.50;5064111;28;19924;-61
2022/03/15 15:56:55;;;;;;;;;;;;;;;14.91;100.00;99551.72;5037975;28;19924;-61
2022/03/15 15:59:20;;;;;;;;;;;;;;;14.82;100.00;99562.47;5064498;28;20023;-60
2022/03/15 16:01:49;;;;;;;;;;;;;;;15.04;100.00;99572.81;5064681;28;19912;-61
2022/03/15 16:04:24;;;;;;;;;;;;;;;13.62;100.00;99572.16;5062748;28;19920;-61
2022/03/15 16:06:49;;;;;;;;;;;;;;;14.38;100.00;99572.81;5064487;28;20331;-62
2022/03/15 16:09:17;;;;;;;;;;;;;;;14.49;100.00;99570.66;5064186;28;19977;-61
2022/03/15 16:18:13;;;;;;;;;;;;;;;14.80;100.00;99582.41;5045487;28;19927;-59
2022/03/15 16:21:11;;;;;;;;;;;;;;;14.80;100.00;99592.78;5045029;28;19921;-61
2022/03/15 16:23:37;;;;;;;;;;;;;;;14.47;100.00;99582.81;5024192;28;19923;-61
2022/03/15 16:26:02;;;;;;;;;;;;;;;14.21;100.00;99576.91;5041208;28;19913;-60
2022/03/15 16:28:30;;;;;;;;;;;;;;;13.52;100.00;99591.47;5040575;28;19916;-60
2022/03/15 16:30:56;;;;;;;;;;;;;;;14.19;100.00;99583.03;5055709;28;19916;-60
2022/03/15 16:33:26;;;;;;;;;;;;;;;14.25;100.00;99576.75;5040772;28;19988;-61
2022/03/15 16:35:51;;;;;;;;;;;;;;;12.90;100.00;99577.97;5034185;28;20436;-61
2022/03/15 16:38:16;;;;;;;;;;;;;;;13.42;100.00;99577.19;5037370;28;19943;-61
2022/03/15 16:40:42;;;;;;;;;;;;;;;13.49;100.00;99570.88;5032403;28;19995;-61
2022/03/15 16:43:07;;;;;;;;;;;;;;;13.36;100.00;99580.81;5037346;28;19917;-60
2022/03/15 16:45:34;;;;;;;;;;;;;;;13.55;100.00;99586.22;5033188;28;19925;-59
2022/03/15 16:48:19;;;;;;;;;;;;;;;14.05;100.00;99586.16;5035758;28;20347;-60
2022/03/15 16:50:46;;;;;;;;;;;;;;;14.38;100.00;99588.34;5037532;28;20429;-61
2022/03/15 16:53:11;;;;;;;;;;;;;;;14.40;100.00;99591.75;5033081;28;19929;-61
2022/03/15 17:11:12;;;;;;;;;;;;;;;14.36;100.00;99601.38;5036101;28;20298;-61
2022/03/15 18:05:59;;;;;;;;;;;;;;;12.80;100.00;99611.94;5058094;28;19923;-61
2022/03/15 18:24:46;;;;;;;;;;;;;;;13.24;100.00;99654.47;5034711;28;19925;-61
2022/03/15 18:27:35;;;;;;;;;;;;;;;13.38;100.00;99652.28;5013766;28;19952;-60
2022/03/15 18:33:10;;;;;;;;;;;;;;;13.17;100.00;99660.72;5001472;28;20446;-61
2022/03/15 18:38:41;;;;;;;;;;;;;;;13.15;100.00;99647.84;4994037;28;20040;-60
2022/03/15 18:41:42;;;;;;;;;;;;;;;12.47;100.00;99641.31;4995614;28;19925;-61
2022/03/15 18:44:37;;;;;;;;;;;;;;;12.70;100.00;99644.94;5002168;28;20310;-60
2022/03/15 18:47:08;;;;;;;;;;;;;;;13.20;100.00;99642.50;4975852;28;19913;-58
2022/03/15 18:49:57;;;;;;;;;;;;;;;13.17;100.00;99646.03;5000229;28;19922;-61
2022/03/15 19:21:35;;;;;;;;;;;;;;;11.65;100.00;99657.31;4908657;28;19984;-60
2022/03/15 19:30:54;;;;;;;;;;;;;;;11.44;100.00;99669.03;4843547;29;19988;-60
2022/03/15 19:52:06;;;;;;;;;;;;;;;10.87;100.00;99665.22;4861900;29;19924;-62
2022/03/15 20:00:55;;;;;;;;;;;;;;;10.98;100.00;99678.72;4875072;29;20081;-61
2022/03/15 20:24:41;;;;;;;;;;;;;;;10.40;100.00;99685.09;4959593;28;19922;-62
2022/03/15 20:54:53;;;;;;;;;;;;;;;9.85;100.00;99717.84;4942841;28;19926;-60
2022/03/15 20:57:23;;;;;;;;;;;;;;;9.95;100.00;99721.97;4964035;28;19926;-59
2022/03/15 21:00:34;;;;;;;;;;;;;;;10.38;100.00;99734.09;4942687;28;19914;-60
2022/03/15 21:12:11;;;;;;;;;;;;;;;10.29;100.00;99736.84;4891321;29;19935;-61
2022/03/15 21:17:44;;;;;;;;;;;;;;;10.31;100.00;99742.81;4931182;28;19933;-62
2022/03/15 21:20:10;;;;;;;;;;;;;;;10.55;100.00;99735.47;4969771;28;19926;-60
2022/03/15 21:23:04;;;;;;;;;;;;;;;10.31;100.00;99741.94;4963382;28;19970;-62
2022/03/15 21:25:39;;;;;;;;;;;;;;;10.67;100.00;99733.50;4966108;28;19922;-62
2022/03/15 21:28:05;;;;;;;;;;;;;;;9.90;100.00;99736.66;4966253;28;21247;-62
2022/03/15 21:30:33;;;;;;;;;;;;;;;10.19;100.00;99737.84;4954563;28;19922;-61
2022/03/15 21:33:12;;;;;;;;;;;;;;;10.55;100.00;99735.47;4966690;28;20965;-62
2022/03/15 21:35:37;;;;;;;;;;;;;;;10.66;100.00;99736.94;4966924;28;19925;-62
2022/03/15 21:38:16;;;;;;;;;;;;;;;10.20;100.00;99729.25;4966275;28;20146;-60
2022/03/15 21:40:45;;;;;;;;;;;;;;;9.99;100.00;99738.19;5050568;28;19948;-62
2022/03/15 21:43:12;;;;;;;;;;;;;;;9.61;100.00;99739.72;5056234;28;20041;-62
2022/03/15 21:45:41;;;;;;;;;;;;;;;9.34;100.00;99738.41;5052242;28;20019;-61
2022/03/15 21:48:10;;;;;;;;;;;;;;;9.29;100.00;99742.78;5057309;28;20389;-60
2022/03/15 21:50:41;;;;;;;;;;;;;;;9.09;100.00;99741.34;5057397;28;19920;-59
2022/03/15 21:53:14;;;;;;;;;;;;;;;8.40;100.00;99744.78;5056726;28;19973;-61
2022/03/15 21:55:43;;;;;;;;;;;;;;;8.51;100.00;99749.81;5056337;28;19928;-60
2022/03/15 21:58:11;;;;;;;;;;;;;;;8.49;100.00;99759.25;5058656;28;19974;-60
2022/03/15 22:00:38;;;;;;;;;;;;;;;8.53;100.00;99766.00;5061303;28;19920;-60
2022/03/15 22:03:09;;;;;;;;;;;;;;;8.62;100.00;99771.06;5061080;28;20397;-61
2022/03/15 22:05:35;;;;;;;;;;;;;;;8.55;100.00;99771.97;5060758;28;20382;-60
2022/03/15 22:08:00;;;;;;;;;;;;;;;8.55;100.00;99774.53;5061350;28;19916;-61
2022/03/15 22:10:31;;;;;;;;;;;;;;;8.01;100.00;99771.69;5061301;28;19916;-61
2022/03/15 22:12:57;;;;;;;;;;;;;;;7.46;100.00;99784.06;5058921;28;19925;-60
2022/03/15 22:15:22;;;;;;;;;;;;;;;7.31;100.00;99789.28;5059987;28;19921;-59
2022/03/15 22:20:45;;;;;;;;;;;;;;;7.16;100.00;99794.47;5057072;28;19931;-61
2022/03/15 22:23:10;;;;;;;;;;;;;;;6.89;100.00;99801.47;5059068;28;20309;-62
2022/03/15 22:25:36;;;;;;;;;;;;;;;7.22;100.00;99792.75;5061572;28;19912;-60
2022/03/15 22:28:04;;;;;;;;;;;;;;;7.87;100.00;99795.72;5060668;28;19917;-62
2022/03/15 23:16:54;;;;;;;;;;;;;;;8.27;100.00;99800.47;5063964;28;19928;-61
2022/03/15 23:19:19;;;;;;;;;;;;;;;7.92;100.00;99804.22;5062130;28;19920;-59
2022/03/15 23:24:31;;;;;;;;;;;;;;;7.11;100.00;99797.91;5064077;28;20047;-61
2022/03/15 23:29:46;;;;;;;;;;;;;;;7.49;100.00;99798.56;5075593;28;19923;-61
2022/03/15 23:32:15;;;;;;;;;;;;;;;8.23;100.00;99798.81;5062632;28;19921;-61
2022/03/15 23:34:40;;;;;;;;;;;;;;;7.99;100.00;99799.06;5077696;28;19920;-62
2022/03/15 23:37:05;;;;;;;;;;;;;;;8.02;100.00;99799.00;5063721;28;19927;-62
2022/03/15 23:39:31;;;;;;;;;;;;;;;7.88;100.00;99799.97;5062177;28;19943;-60
2022/03/15 23:41:56;;;;;;;;;;;;;;;7.72;100.00;99803.53;5062580;28;19917;-61
2022/03/15 23:44:22;;;;;;;;;;;;;;;7.24;100.00;99805.56;5062779;28;19924;-57
2022/03/15 23:46:47;;;;;;;;;;;;;;;7.19;100.00;99808.13;5062059;28;19934;-60
2022/03/15 23:49:15;;;;;;;;;;;;;;;6.73;100.00;99804.91;5030453;28;19916;-57
2022/03/15 23:51:40;;;;;;;;;;;;;;;7.00;100.00;99804.81;5061942;28;19927;-61
2022/03/15 23:54:07;;;;;;;;;;;;;;;7.50;100.00;99803.69;5062349;28;19916;-60
2022/03/15 23:56:35;;;;;;;;;;;;;;;7.52;100.00;99803.66;5060821;28;20317;-60
2022/03/15 23:59:08;;;;;;;;;;;;;;;7.25;100.00;99809.81;5059627;28;19920;-57
